Time;durP1;ratioP1;P1;durP2;ratioP2;P2;SDS_P1;SDS_P2;PMS_P1;PMS_P2;Temp;Humidity;BMP_temperature;BMP_pressure;BME280_temperature;BME280_humidity;BME280_pressure;Samples;Min_cycle;Max_cycle;Signal;HPM_P1;HPM_P2
2022/12/29 00:02:07;;;;;;;5.68;1.50;;;10.30;1.00;;;;;;5068250;28;21075;-55
2022/12/29 00:04:33;;;;;;;7.90;1.40;;;10.30;1.00;;;;;;5075493;28;20485;-53
2022/12/29 00:06:59;;;;;;;5.28;1.27;;;10.40;1.00;;;;;;5077674;28;20538;-52
2022/12/29 00:09:26;;;;;;;5.50;1.40;;;10.40;1.00;;;;;;5073225;28;20388;-54
2022/12/29 00:11:52;;;;;;;5.90;1.55;;;10.50;1.00;;;;;;5073727;28;20414;-57
2022/12/29 00:17:02;;;;;;;5.82;1.33;;;10.50;1.00;;;;;;5080810;28;20466;-51
2022/12/29 00:35:54;;;;;;;6.18;1.45;;;10.30;1.00;;;;;;5071784;28;20434;-54
2022/12/29 00:44:09;;;;;;;6.63;1.50;;;10.30;1.00;;;;;;5072100;28;20463;-58
2022/12/29 00:46:40;;;;;;;5.40;1.30;;;10.30;1.00;;;;;;5072159;28;20418;-52
2022/12/29 00:51:54;;;;;;;5.65;1.38;;;10.40;1.00;;;;;;5071096;28;20441;-52
2022/12/29 00:54:19;;;;;;;5.78;1.30;;;10.60;1.00;;;;;;5072107;28;20387;-51
2022/12/29 00:56:49;;;;;;;6.43;1.38;;;10.60;1.00;;;;;;5072023;28;21187;-51
2022/12/29 00:59:16;;;;;;;5.70;1.20;;;10.60;1.00;;;;;;5071298;28;20426;-51
2022/12/29 01:01:42;;;;;;;5.85;1.48;;;10.60;1.00;;;;;;5071616;28;20853;-54
2022/12/29 01:04:08;;;;;;;5.95;1.40;;;10.70;1.00;;;;;;5070787;28;21299;-53
2022/12/29 01:06:36;;;;;;;5.13;1.30;;;10.70;1.00;;;;;;5071664;28;20383;-51
2022/12/29 01:11:46;;;;;;;5.70;1.50;;;10.70;1.00;;;;;;5071541;28;20402;-55
2022/12/29 01:14:12;;;;;;;5.70;1.10;;;10.70;1.00;;;;;;5070096;28;21195;-53
2022/12/29 01:16:37;;;;;;;6.30;1.20;;;10.70;1.00;;;;;;5070704;28;20425;-51
2022/12/29 01:19:04;;;;;;;5.73;1.60;;;10.70;1.00;;;;;;5070764;28;20954;-55
2022/12/29 01:21:29;;;;;;;5.38;1.30;;;10.70;1.00;;;;;;5070844;28;20411;-53
2022/12/29 01:23:55;;;;;;;5.45;1.20;;;10.80;1.00;;;;;;5069928;28;20465;-52
2022/12/29 01:26:21;;;;;;;4.97;1.10;;;10.90;1.00;;;;;;5070976;28;20384;-52
2022/12/29 01:28:46;;;;;;;6.28;1.50;;;10.90;1.00;;;;;;5070689;28;20502;-52
2022/12/29 01:31:14;;;;;;;6.00;1.50;;;10.80;1.00;;;;;;5069702;28;20399;-52
2022/12/29 01:33:41;;;;;;;5.28;1.20;;;10.90;1.00;;;;;;5070245;28;20897;-52
2022/12/29 01:36:10;;;;;;;4.93;1.10;;;10.90;1.00;;;;;;5068884;28;20497;-51
2022/12/29 01:38:37;;;;;;;8.50;1.40;;;10.90;1.00;;;;;;5070728;28;20422;-51
2022/12/29 01:41:03;;;;;;;5.10;1.02;;;10.90;1.00;;;;;;5069848;28;20399;-53
2022/12/29 01:43:48;;;;;;;5.00;1.30;;;10.90;1.00;;;;;;5071012;28;20852;-51
2022/12/29 01:46:34;;;;;;;7.60;1.20;;;10.90;1.00;;;;;;5069958;28;20572;-51
2022/12/29 01:49:03;;;;;;;6.65;1.23;;;10.90;1.00;;;;;;5055296;28;20457;-52
2022/12/29 01:51:31;;;;;;;5.57;1.02;;;10.90;1.00;;;;;;5070482;28;20879;-52
2022/12/29 01:53:59;;;;;;;8.73;1.40;;;10.90;1.00;;;;;;5069831;28;20869;-53
2022/12/29 01:56:25;;;;;;;5.95;1.30;;;10.90;1.00;;;;;;5070650;28;20399;-52
2022/12/29 01:59:00;;;;;;;5.00;1.10;;;10.90;1.00;;;;;;5069751;28;20411;-57
2022/12/29 02:01:25;;;;;;;5.97;1.42;;;11.00;1.00;;;;;;5070158;28;20903;-51
2022/12/29 02:03:51;;;;;;;6.13;1.47;;;11.20;1.00;;;;;;5069688;28;20399;-56
2022/12/29 02:06:35;;;;;;;6.13;1.23;;;11.20;1.00;;;;;;5070105;28;20402;-52
2022/12/29 02:09:00;;;;;;;6.53;1.30;;;11.10;1.00;;;;;;5069233;28;20431;-51
2022/12/29 02:11:28;;;;;;;6.47;1.25;;;11.10;1.00;;;;;;5069985;28;20422;-51
2022/12/29 02:13:54;;;;;;;5.10;1.20;;;11.00;1.00;;;;;;5069521;28;20392;-57
2022/12/29 02:16:31;;;;;;;5.50;1.37;;;11.00;1.00;;;;;;5070476;28;20454;-51
2022/12/29 02:19:25;;;;;;;5.20;1.10;;;10.90;1.00;;;;;;5068744;28;20465;-52
2022/12/29 02:22:06;;;;;;;4.95;1.00;;;10.20;1.00;;;;;;5069612;28;20399;-56
2022/12/29 02:25:05;;;;;;;7.38;1.20;;;10.90;1.00;;;;;;5070000;28;20392;-51
2022/12/29 02:27:52;;;;;;;6.13;1.17;;;10.90;1.00;;;;;;5070201;28;20387;-51
2022/12/29 02:30:30;;;;;;;5.93;1.13;;;11.00;1.00;;;;;;5069933;28;20368;-52
2022/12/29 02:33:45;;;;;;;5.50;1.10;;;10.90;1.00;;;;;;5069290;28;20383;-52
2022/12/29 02:36:19;;;;;;;5.97;1.10;;;11.00;1.00;;;;;;5057110;28;20530;-53
2022/12/29 02:39:15;;;;;;;5.13;1.00;;;11.00;1.00;;;;;;5069472;28;20435;-52
2022/12/29 02:41:56;;;;;;;6.10;1.00;;;11.00;1.00;;;;;;5069594;28;20396;-52
2022/12/29 02:44:36;;;;;;;6.40;1.30;;;11.10;1.00;;;;;;5069299;28;21184;-51
2022/12/29 02:47:09;;;;;;;6.70;1.40;;;11.10;1.00;;;;;;5068645;28;20840;-51
2022/12/29 02:49:53;;;;;;;6.25;1.17;;;11.20;1.00;;;;;;5069317;28;20753;-54
2022/12/29 02:52:25;;;;;;;5.32;1.02;;;11.20;1.00;;;;;;5069387;28;20975;-52
2022/12/29 02:54:54;;;;;;;5.63;1.20;;;11.20;1.00;;;;;;5069677;28;20516;-52
2022/12/29 02:57:22;;;;;;;5.63;1.13;;;11.20;1.00;;;;;;5068969;28;20400;-51
2022/12/29 03:00:11;;;;;;;5.57;0.95;;;11.30;1.00;;;;;;5069408;28;20411;-52
2022/12/29 03:02:45;;;;;;;5.10;1.10;;;11.40;1.00;;;;;;5069201;28;20496;-52
2022/12/29 03:05:32;;;;;;;4.60;0.90;;;11.40;1.00;;;;;;5068900;28;20403;-51
2022/12/29 03:08:24;;;;;;;5.20;0.70;;;11.30;1.00;;;;;;5068803;28;20407;-52
2022/12/29 03:11:01;;;;;;;5.75;1.08;;;11.30;1.00;;;;;;5066191;28;20821;-52
2022/12/29 03:17:14;;;;;;;5.65;0.90;;;11.40;1.00;;;;;;5068897;28;20733;-51
2022/12/29 03:19:46;;;;;;;6.20;1.10;;;11.40;1.00;;;;;;4985226;28;20776;-51
2022/12/29 03:22:26;;;;;;;5.28;1.00;;;11.20;1.00;;;;;;5039850;28;20494;-51
2022/12/29 03:25:01;;;;;;;7.30;1.00;;;11.30;1.00;;;;;;5052779;28;20400;-57
2022/12/29 03:27:34;;;;;;;5.35;1.00;;;11.20;1.00;;;;;;5069137;28;20422;-51
2022/12/29 03:30:06;;;;;;;4.60;0.88;;;11.10;1.00;;;;;;5068078;28;20402;-52
2022/12/29 03:32:37;;;;;;;5.00;1.00;;;11.00;1.00;;;;;;5069000;28;20402;-52
2022/12/29 03:35:05;;;;;;;4.97;0.90;;;11.00;1.00;;;;;;5068351;28;20411;-52
2022/12/29 03:37:38;;;;;;;5.10;0.98;;;11.10;1.00;;;;;;5068942;28;20454;-51
2022/12/29 03:40:05;;;;;;;5.10;0.80;;;11.30;1.00;;;;;;5068107;28;20404;-53
2022/12/29 03:42:34;;;;;;;4.70;0.95;;;11.40;1.00;;;;;;5068875;28;20403;-52
2022/12/29 03:44:59;;;;;;;5.30;1.00;;;11.50;1.00;;;;;;5067846;28;20399;-52
2022/12/29 03:47:25;;;;;;;5.60;0.80;;;11.60;1.00;;;;;;5068818;28;20387;-51
2022/12/29 03:49:51;;;;;;;6.60;1.00;;;11.60;1.00;;;;;;5068833;28;20402;-54
2022/12/29 03:52:17;;;;;;;6.50;1.00;;;11.60;1.00;;;;;;5068799;28;20475;-51
2022/12/29 03:54:43;;;;;;;5.65;0.80;;;11.60;1.00;;;;;;5068817;28;20406;-52
2022/12/29 03:57:11;;;;;;;5.10;1.00;;;11.60;1.00;;;;;;5067749;28;20392;-53
2022/12/29 03:59:36;;;;;;;5.83;1.10;;;11.40;1.00;;;;;;5069819;28;20407;-52
2022/12/29 04:02:02;;;;;;;5.45;1.13;;;11.40;1.00;;;;;;5072065;28;20391;-51
2022/12/29 04:04:28;;;;;;;5.20;1.10;;;11.30;1.00;;;;;;5072630;28;20868;-52
2022/12/29 04:06:53;;;;;;;4.40;0.70;;;11.10;1.00;;;;;;5071990;28;20398;-57
2022/12/29 04:09:19;;;;;;;5.70;1.00;;;11.10;1.00;;;;;;5072404;28;20399;-52
2022/12/29 04:11:44;;;;;;;4.97;1.00;;;11.10;1.00;;;;;;5072027;28;20424;-52
2022/12/29 04:14:10;;;;;;;4.95;0.90;;;10.90;1.00;;;;;;5072129;28;20873;-52
2022/12/29 04:16:38;;;;;;;5.17;0.87;;;10.90;1.00;;;;;;5072266;28;20400;-51
2022/12/29 04:19:04;;;;;;;5.40;1.00;;;10.80;1.00;;;;;;5069684;28;20403;-53
2022/12/29 04:21:30;;;;;;;5.20;1.60;;;10.80;1.00;;;;;;5052634;28;20447;-53
2022/12/29 04:23:55;;;;;;;5.67;1.20;;;10.90;1.00;;;;;;5059301;28;20403;-59
2022/12/29 04:26:21;;;;;;;5.35;1.05;;;10.50;1.00;;;;;;5072182;28;20745;-53
2022/12/29 04:28:46;;;;;;;4.80;0.93;;;11.00;1.00;;;;;;5071999;28;20392;-52
2022/12/29 04:31:12;;;;;;;4.80;0.90;;;11.10;1.00;;;;;;5067647;28;20893;-52
2022/12/29 04:33:38;;;;;;;6.00;1.30;;;11.10;1.00;;;;;;5069290;28;20395;-54
2022/12/29 04:36:03;;;;;;;5.60;1.20;;;11.10;1.00;;;;;;5071027;28;20438;-53
2022/12/29 04:38:29;;;;;;;5.30;1.02;;;11.10;1.00;;;;;;5071585;28;20415;-53
2022/12/29 04:40:55;;;;;;;5.30;0.97;;;11.00;1.00;;;;;;5071389;28;20445;-57
2022/12/29 04:43:22;;;;;;;4.82;0.90;;;10.80;1.00;;;;;;5071563;28;20387;-52
2022/12/29 04:45:47;;;;;;;5.10;1.27;;;10.80;1.00;;;;;;5071489;28;20441;-54
2022/12/29 04:48:14;;;;;;;5.25;1.20;;;10.70;1.00;;;;;;5071353;28;20619;-58
2022/12/29 04:50:40;;;;;;;5.07;1.10;;;11.70;1.00;;;;;;5077613;28;20425;-57
2022/12/29 04:53:07;;;;;;;5.20;0.83;;;11.30;1.00;;;;;;5072009;28;20384;-58
2022/12/29 04:55:32;;;;;;;5.80;0.97;;;11.30;1.00;;;;;;5069447;28;20409;-57
2022/12/29 04:57:58;;;;;;;5.78;1.00;;;11.30;1.00;;;;;;5067432;28;20392;-59
2022/12/29 05:00:24;;;;;;;5.10;1.00;;;11.20;1.00;;;;;;5071507;28;20479;-58
2022/12/29 05:02:49;;;;;;;5.30;1.10;;;11.10;1.00;;;;;;5071582;28;20861;-58
2022/12/29 05:05:15;;;;;;;5.40;1.00;;;11.20;1.00;;;;;;5071028;28;20459;-59
2022/12/29 05:07:41;;;;;;;5.00;1.00;;;11.20;1.00;;;;;;5070360;28;20918;-54
2022/12/29 05:10:08;;;;;;;6.07;1.30;;;11.10;1.00;;;;;;5070625;28;20410;-54
2022/12/29 05:12:35;;;;;;;5.88;1.10;;;10.90;1.00;;;;;;5070782;28;21258;-53
2022/12/29 05:15:02;;;;;;;6.30;1.20;;;10.90;1.00;;;;;;5070685;28;20396;-53
2022/12/29 05:17:28;;;;;;;6.93;1.50;;;10.90;1.00;;;;;;5071511;28;20384;-56
2022/12/29 05:19:54;;;;;;;5.00;0.90;;;10.80;1.00;;;;;;5070989;28;20422;-58
2022/12/29 05:22:20;;;;;;;6.83;1.23;;;10.90;1.00;;;;;;5068283;28;20383;-54
2022/12/29 05:24:45;;;;;;;6.40;1.00;;;10.80;1.00;;;;;;5068986;28;20757;-54
2022/12/29 05:27:11;;;;;;;5.40;1.10;;;10.80;1.00;;;;;;5070746;28;20496;-54
2022/12/29 05:29:36;;;;;;;5.30;1.20;;;10.90;1.00;;;;;;5070739;28;20448;-55
2022/12/29 05:32:02;;;;;;;6.03;0.93;;;10.90;1.00;;;;;;5060982;28;20401;-54
2022/12/29 05:34:28;;;;;;;5.70;1.30;;;10.90;1.00;;;;;;5070211;28;20419;-55
2022/12/29 05:36:54;;;;;;;4.90;1.00;;;10.90;1.00;;;;;;5032778;28;20897;-54
2022/12/29 05:39:19;;;;;;;7.32;1.02;;;11.00;1.00;;;;;;5050295;28;20867;-54
2022/12/29 05:41:45;;;;;;;6.55;1.30;;;11.10;1.00;;;;;;5050947;28;20430;-53
2022/12/29 05:44:11;;;;;;;4.90;1.00;;;11.20;1.00;;;;;;5050297;28;20847;-55
2022/12/29 05:46:37;;;;;;;6.37;1.30;;;11.30;1.00;;;;;;5051316;28;20396;-53
2022/12/29 05:49:03;;;;;;;5.85;1.20;;;11.40;1.00;;;;;;5050007;28;20397;-54
2022/12/29 05:51:28;;;;;;;5.18;1.10;;;11.60;1.00;;;;;;5059152;28;20884;-53
2022/12/29 05:53:54;;;;;;;6.63;1.20;;;11.60;1.00;;;;;;5070721;28;20391;-58
2022/12/29 05:56:20;;;;;;;4.90;1.00;;;11.60;1.00;;;;;;5070827;28;20372;-54
2022/12/29 05:58:45;;;;;;;6.03;1.08;;;11.70;1.00;;;;;;5070453;28;20407;-54
2022/12/29 06:01:11;;;;;;;6.63;1.03;;;11.70;1.00;;;;;;5052021;28;20905;-54
2022/12/29 06:03:37;;;;;;;5.50;1.30;;;11.70;1.00;;;;;;5070353;28;20380;-54
2022/12/29 06:06:02;;;;;;;6.40;1.50;;;11.80;1.00;;;;;;5070162;28;20456;-54
2022/12/29 06:08:28;;;;;;;6.00;1.40;;;11.80;1.00;;;;;;5070383;28;20523;-54
2022/12/29 06:10:53;;;;;;;5.50;1.10;;;11.80;1.00;;;;;;5070503;28;20387;-55
2022/12/29 06:13:19;;;;;;;5.20;1.13;;;11.90;1.00;;;;;;5070002;28;20384;-55
2022/12/29 06:15:45;;;;;;;5.20;0.90;;;11.80;1.00;;;;;;5052533;28;20384;-54
2022/12/29 06:18:10;;;;;;;5.55;1.25;;;11.70;1.00;;;;;;5069439;28;20415;-53
2022/12/29 06:20:36;;;;;;;6.00;1.27;;;11.70;1.00;;;;;;5070570;28;20396;-54
2022/12/29 06:23:01;;;;;;;5.38;1.30;;;11.80;1.00;;;;;;5068973;28;20506;-54
2022/12/29 06:25:28;;;;;;;6.20;1.10;;;11.70;1.00;;;;;;5069974;28;20412;-54
2022/12/29 06:27:53;;;;;;;6.00;1.20;;;11.80;1.00;;;;;;5070454;28;20387;-55
2022/12/29 06:30:19;;;;;;;5.03;1.20;;;11.80;1.00;;;;;;5069335;28;20387;-53
2022/12/29 06:32:45;;;;;;;8.30;1.50;;;11.80;1.00;;;;;;5070398;28;20804;-54
2022/12/29 06:35:11;;;;;;;5.20;1.20;;;11.70;1.00;;;;;;5069010;28;20404;-53
2022/12/29 06:37:37;;;;;;;5.43;1.30;;;11.70;1.00;;;;;;5069908;28;20479;-53
2022/12/29 06:40:02;;;;;;;6.40;1.48;;;11.80;1.00;;;;;;5069072;28;20407;-55
2022/12/29 06:42:28;;;;;;;5.60;1.00;;;11.70;1.00;;;;;;5070165;28;20445;-53
2022/12/29 06:44:54;;;;;;;6.05;1.10;;;11.70;1.00;;;;;;5070035;28;20408;-54
2022/12/29 06:47:19;;;;;;;5.50;1.43;;;11.70;1.00;;;;;;5069082;28;20845;-55
2022/12/29 06:49:45;;;;;;;6.40;1.60;;;11.70;1.00;;;;;;5069762;28;20509;-51
2022/12/29 06:52:11;;;;;;;6.50;1.48;;;11.80;1.00;;;;;;5069026;28;20891;-53
2022/12/29 06:54:36;;;;;;;6.30;1.50;;;11.80;1.00;;;;;;5070156;28;20384;-53
2022/12/29 06:57:02;;;;;;;6.18;1.20;;;11.70;1.00;;;;;;5069243;28;20458;-54
2022/12/29 06:59:27;;;;;;;6.67;1.43;;;11.70;1.00;;;;;;5069777;28;20404;-53
2022/12/29 07:01:53;;;;;;;5.40;1.20;;;11.70;1.00;;;;;;5069877;28;20411;-53
2022/12/29 07:04:19;;;;;;;6.30;1.20;;;11.70;1.00;;;;;;5063985;28;20404;-52
2022/12/29 07:06:44;;;;;;;5.70;1.50;;;11.70;1.00;;;;;;5067354;28;20408;-52
2022/12/29 07:09:10;;;;;;;6.40;1.38;;;11.60;1.00;;;;;;5069000;28;20794;-51
2022/12/29 07:11:36;;;;;;;6.25;1.60;;;11.60;1.00;;;;;;5069348;28;20390;-53
2022/12/29 07:14:03;;;;;;;6.15;1.30;;;11.60;1.00;;;;;;5068942;28;20430;-52
2022/12/29 07:16:29;;;;;;;7.40;1.40;;;11.60;1.00;;;;;;5069983;28;20383;-54
2022/12/29 07:18:57;;;;;;;6.60;1.30;;;11.50;1.00;;;;;;5069595;28;20761;-56
2022/12/29 07:21:22;;;;;;;6.72;1.38;;;11.40;1.00;;;;;;5069035;28;20474;-53
2022/12/29 07:23:48;;;;;;;6.07;1.50;;;11.40;1.00;;;;;;5069723;28;20798;-54
2022/12/29 07:26:17;;;;;;;5.63;1.30;;;11.40;1.00;;;;;;5050718;28;20392;-53
2022/12/29 07:28:43;;;;;;;6.20;1.20;;;11.60;1.00;;;;;;5069567;28;20468;-53
2022/12/29 07:31:15;;;;;;;6.80;1.60;;;11.50;1.00;;;;;;5068546;28;20376;-53
2022/12/29 07:33:41;;;;;;;5.53;1.23;;;11.60;1.00;;;;;;5049355;28;20510;-53
2022/12/29 07:36:07;;;;;;;6.17;1.60;;;11.60;1.00;;;;;;5052673;28;20427;-53
2022/12/29 07:38:32;;;;;;;8.13;1.55;;;11.60;1.00;;;;;;5053471;28;20401;-54
2022/12/29 07:40:58;;;;;;;5.53;1.33;;;11.70;1.00;;;;;;5071524;28;20395;-57
2022/12/29 07:43:24;;;;;;;5.32;1.20;;;11.70;1.00;;;;;;5073179;28;20394;-51
2022/12/29 07:45:50;;;;;;;6.68;1.50;;;11.80;1.00;;;;;;5073375;28;20380;-53
2022/12/29 07:48:15;;;;;;;4.82;1.10;;;11.80;1.00;;;;;;5072802;28;20394;-53
2022/12/29 07:50:41;;;;;;;5.10;1.20;;;11.70;1.00;;;;;;5073008;28;20852;-54
2022/12/29 07:53:06;;;;;;;5.90;1.20;;;11.70;1.00;;;;;;5072714;28;20399;-53
2022/12/29 07:55:32;;;;;;;8.20;1.65;;;11.80;1.00;;;;;;5073044;28;20402;-52
2022/12/29 07:57:58;;;;;;;6.00;1.40;;;11.70;1.00;;;;;;5072502;28;20803;-57
2022/12/29 08:00:24;;;;;;;5.70;1.58;;;11.70;1.00;;;;;;5072841;28;20536;-54
2022/12/29 08:02:49;;;;;;;5.90;1.40;;;11.70;1.00;;;;;;5072886;28;20752;-53
2022/12/29 08:05:15;;;;;;;7.40;1.40;;;11.70;1.00;;;;;;5072649;28;20391;-53
2022/12/29 08:07:43;;;;;;;6.20;1.43;;;11.60;1.00;;;;;;5072818;28;20865;-53
2022/12/29 08:10:09;;;;;;;5.70;1.37;;;11.60;1.00;;;;;;5071904;28;20388;-52
2022/12/29 08:12:35;;;;;;;5.55;0.98;;;11.70;1.00;;;;;;5072679;28;20383;-53
2022/12/29 08:15:01;;;;;;;6.00;1.40;;;11.60;1.00;;;;;;5072098;28;20425;-53
2022/12/29 08:17:26;;;;;;;5.88;1.30;;;11.70;1.00;;;;;;5072611;28;20706;-53
2022/12/29 08:19:53;;;;;;;5.13;1.20;;;11.80;1.00;;;;;;5071458;28;20418;-53
2022/12/29 08:22:18;;;;;;;5.78;1.33;;;11.80;1.00;;;;;;5072030;28;21060;-53
2022/12/29 08:24:44;;;;;;;8.33;1.30;;;11.90;1.00;;;;;;5054896;28;20391;-53
2022/12/29 08:27:10;;;;;;;7.40;1.20;;;11.80;1.00;;;;;;5071836;28;20376;-55
2022/12/29 08:29:35;;;;;;;6.70;1.05;;;11.90;1.00;;;;;;5072434;28;20475;-53
2022/12/29 08:32:01;;;;;;;5.50;1.30;;;11.80;1.00;;;;;;5071567;28;20458;-53
2022/12/29 08:34:26;;;;;;;5.40;1.30;;;11.80;1.00;;;;;;5071783;28;20480;-54
2022/12/29 08:36:52;;;;;;;6.00;1.30;;;11.90;1.00;;;;;;5072156;28;20375;-51
2022/12/29 08:39:17;;;;;;;6.90;1.40;;;12.00;1.00;;;;;;5071564;28;20416;-53
2022/12/29 08:41:43;;;;;;;5.90;1.10;;;11.90;1.00;;;;;;5072079;28;20845;-52
2022/12/29 08:44:09;;;;;;;5.68;1.15;;;11.90;1.00;;;;;;5071693;28;20372;-54
2022/12/29 08:46:34;;;;;;;5.00;1.20;;;11.90;1.00;;;;;;5071248;28;20441;-51
2022/12/29 08:49:00;;;;;;;6.30;1.30;;;12.00;1.00;;;;;;5071230;28;20380;-55
2022/12/29 08:51:26;;;;;;;6.00;1.20;;;12.10;1.00;;;;;;5072175;28;20383;-53
2022/12/29 08:53:51;;;;;;;5.67;1.30;;;12.20;1.00;;;;;;5071974;28;20398;-51
2022/12/29 08:56:17;;;;;;;6.25;1.35;;;12.40;1.00;;;;;;5070829;28;20395;-53
2022/12/29 08:58:43;;;;;;;6.20;1.40;;;12.40;1.00;;;;;;5071974;28;20431;-51
2022/12/29 09:01:09;;;;;;;5.00;1.10;;;12.40;1.00;;;;;;5070930;28;20384;-52
2022/12/29 09:03:35;;;;;;;6.90;1.55;;;12.60;1.00;;;;;;5071753;28;20376;-52
2022/12/29 09:06:00;;;;;;;5.90;1.20;;;12.70;1.00;;;;;;5071399;28;20786;-57
2022/12/29 09:08:26;;;;;;;5.20;1.20;;;13.00;1.00;;;;;;5071710;28;20868;-53
2022/12/29 09:10:51;;;;;;;5.60;1.10;;;13.10;1.00;;;;;;5071530;28;20877;-52
2022/12/29 09:13:17;;;;;;;5.77;1.07;;;13.00;1.00;;;;;;5070738;28;20390;-52
2022/12/29 09:15:43;;;;;;;5.45;1.40;;;13.10;1.00;;;;;;5071705;28;20371;-52
2022/12/29 09:18:10;;;;;;;5.32;1.05;;;13.10;1.00;;;;;;5070429;28;20434;-52
2022/12/29 09:20:37;;;;;;;5.10;1.20;;;13.10;1.00;;;;;;5071426;28;20408;-51
2022/12/29 09:23:03;;;;;;;6.07;1.10;;;13.10;1.00;;;;;;5070185;28;20392;-53
2022/12/29 09:25:29;;;;;;;5.38;1.10;;;13.20;1.00;;;;;;5071598;28;20395;-52
2022/12/29 09:27:55;;;;;;;5.40;1.20;;;13.40;1.00;;;;;;5070993;28;20406;-52
2022/12/29 09:30:22;;;;;;;6.77;1.33;;;13.40;1.00;;;;;;5070370;28;20908;-52
2022/12/29 09:32:48;;;;;;;5.38;1.30;;;13.30;1.00;;;;;;5071158;28;20387;-52
2022/12/29 09:35:15;;;;;;;6.35;1.50;;;13.40;1.00;;;;;;5070019;28;20472;-54
2022/12/29 09:37:41;;;;;;;7.20;1.50;;;13.50;1.00;;;;;;5070900;28;20372;-51
2022/12/29 09:40:17;;;;;;;5.65;1.13;;;13.40;1.00;;;;;;5070383;28;20403;-50
2022/12/29 09:42:59;;;;;;;7.03;1.60;;;13.40;1.00;;;;;;5071001;28;20861;-50
2022/12/29 09:45:32;;;;;;;5.25;1.25;;;13.40;1.00;;;;;;5071088;28;20379;-50
2022/12/29 09:47:58;;;;;;;8.82;1.30;;;13.30;1.00;;;;;;5070455;28;20417;-56
2022/12/29 09:50:36;;;;;;;5.87;1.43;;;13.40;1.00;;;;;;5070725;28;20849;-51
2022/12/29 09:53:12;;;;;;;6.70;1.30;;;13.40;1.00;;;;;;5069808;28;20470;-55
2022/12/29 09:55:50;;;;;;;6.15;1.25;;;13.50;1.00;;;;;;5070942;28;20387;-51
2022/12/29 09:58:21;;;;;;;7.70;1.40;;;13.60;1.00;;;;;;5069509;28;20420;-51
2022/12/29 10:00:53;;;;;;;5.60;1.33;;;13.70;1.00;;;;;;5070565;28;20453;-51
2022/12/29 10:03:22;;;;;;;6.10;1.10;;;13.60;1.00;;;;;;5067319;28;20388;-51
2022/12/29 10:06:04;;;;;;;5.63;1.20;;;13.30;1.00;;;;;;5063541;28;20391;-51
2022/12/29 10:08:29;;;;;;;7.13;1.17;;;13.30;1.00;;;;;;5070056;28;20384;-50
2022/12/29 10:11:02;;;;;;;5.20;1.00;;;13.30;1.00;;;;;;5070729;28;20383;-50
2022/12/29 10:14:02;;;;;;;7.65;1.10;;;13.20;1.00;;;;;;5069905;28;20410;-50
2022/12/29 10:16:42;;;;;;;5.05;1.10;;;13.30;1.00;;;;;;5051510;28;20405;-51
2022/12/29 10:19:38;;;;;;;6.90;1.10;;;13.40;1.00;;;;;;5069150;28;20904;-50
2022/12/29 10:22:25;;;;;;;5.38;1.10;;;13.40;1.00;;;;;;5063245;28;20481;-53
2022/12/29 10:24:55;;;;;;;5.30;1.10;;;13.20;1.00;;;;;;5060257;28;20741;-50
2022/12/29 10:27:21;;;;;;;5.00;0.82;;;13.30;1.00;;;;;;5057876;28;21014;-51
2022/12/29 10:29:57;;;;;;;6.00;1.10;;;13.40;1.00;;;;;;5051862;28;20385;-51
2022/12/29 10:32:27;;;;;;;5.70;1.10;;;13.40;1.00;;;;;;5049520;28;20909;-50
2022/12/29 10:34:58;;;;;;;5.82;0.90;;;13.50;1.00;;;;;;5050204;28;20769;-51
2022/12/29 10:38:08;;;;;;;5.75;1.30;;;13.40;1.00;;;;;;5049064;28;20439;-50
2022/12/29 10:40:43;;;;;;;5.85;1.00;;;13.50;1.00;;;;;;5049158;28;20413;-50
2022/12/29 10:43:29;;;;;;;5.30;1.00;;;13.50;1.00;;;;;;5049225;28;20422;-50
2022/12/29 10:46:01;;;;;;;6.35;1.10;;;13.40;1.00;;;;;;5050007;28;20516;-51
2022/12/29 10:48:34;;;;;;;4.60;0.90;;;13.20;1.00;;;;;;5050588;28;20543;-51
2022/12/29 10:51:04;;;;;;;5.15;1.10;;;13.20;1.00;;;;;;5051479;28;20380;-57
2022/12/29 10:53:53;;;;;;;5.60;0.80;;;13.10;1.00;;;;;;5069438;28;20383;-52
2022/12/29 10:56:28;;;;;;;5.70;1.05;;;13.00;1.00;;;;;;5050498;28;20880;-52
2022/12/29 10:58:56;;;;;;;5.78;0.85;;;13.10;1.00;;;;;;5068726;28;20506;-52
2022/12/29 11:01:27;;;;;;;5.23;1.07;;;13.10;1.00;;;;;;5067514;28;20437;-52
2022/12/29 11:04:02;;;;;;;5.20;0.90;;;13.30;1.00;;;;;;5069924;28;20499;-53
2022/12/29 11:06:29;;;;;;;5.23;1.20;;;13.40;1.00;;;;;;5079838;28;20467;-50
2022/12/29 11:09:19;;;;;;;6.13;1.48;;;13.60;1.00;;;;;;5071515;28;20385;-51
2022/12/29 11:11:45;;;;;;;4.68;1.00;;;13.70;1.00;;;;;;5075403;28;20463;-51
2022/12/29 11:14:18;;;;;;;5.70;1.10;;;13.80;1.00;;;;;;5074480;28;20562;-51
2022/12/29 11:16:45;;;;;;;5.67;1.17;;;13.60;1.00;;;;;;5074834;28;20739;-50
2022/12/29 11:19:27;;;;;;;5.00;1.10;;;13.70;1.00;;;;;;5077181;28;20877;-50
2022/12/29 11:21:54;;;;;;;5.80;1.10;;;13.80;1.00;;;;;;5072109;28;20423;-50
2022/12/29 11:24:24;;;;;;;5.00;1.10;;;13.70;1.00;;;;;;5074275;28;20384;-51
2022/12/29 11:26:57;;;;;;;5.32;1.17;;;13.60;1.00;;;;;;5069217;28;20391;-50
2022/12/29 11:29:27;;;;;;;6.30;0.90;;;13.60;1.00;;;;;;5068610;28;20383;-51
2022/12/29 11:31:58;;;;;;;6.05;1.30;;;13.50;1.00;;;;;;5069939;28;20887;-52
2022/12/29 11:34:35;;;;;;;4.70;0.83;;;13.50;1.00;;;;;;5070457;28;21063;-52
2022/12/29 11:37:06;;;;;;;5.30;1.10;;;13.50;1.00;;;;;;5069361;28;20395;-57
2022/12/29 11:39:47;;;;;;;6.15;1.20;;;13.70;1.00;;;;;;5068658;28;20498;-54
2022/12/29 11:42:17;;;;;;;6.25;1.27;;;13.60;1.00;;;;;;5085097;28;20441;-51
2022/12/29 11:44:46;;;;;;;6.32;1.00;;;13.50;1.00;;;;;;5072611;28;20401;-51
2022/12/29 11:47:22;;;;;;;4.90;0.90;;;13.60;1.00;;;;;;5074512;28;20396;-52
2022/12/29 11:49:53;;;;;;;5.77;1.10;;;13.60;1.00;;;;;;5058482;28;20422;-52
2022/12/29 11:52:25;;;;;;;5.70;0.80;;;13.40;1.00;;;;;;5063954;28;20443;-52
2022/12/29 11:54:51;;;;;;;5.63;0.80;;;13.40;1.00;;;;;;5067712;28;20776;-52
2022/12/29 11:57:18;;;;;;;4.93;0.90;;;13.30;1.00;;;;;;5068331;28;20892;-53
2022/12/29 11:59:55;;;;;;;5.70;0.88;;;13.30;1.00;;;;;;5068896;28;20490;-52
2022/12/29 12:02:21;;;;;;;4.55;0.60;;;13.30;1.00;;;;;;5068270;28;20466;-51
2022/12/29 12:04:49;;;;;;;5.00;0.50;;;13.10;1.00;;;;;;5068571;28;20815;-53
2022/12/29 12:07:22;;;;;;;4.13;0.40;;;13.00;1.00;;;;;;5068415;28;20387;-53
2022/12/29 12:10:01;;;;;;;4.47;0.57;;;12.90;1.00;;;;;;5067876;28;20400;-54
2022/12/29 12:12:44;;;;;;;4.60;0.50;;;12.80;1.00;;;;;;5067431;28;20399;-53
2022/12/29 12:15:22;;;;;;;5.40;0.52;;;12.80;1.00;;;;;;5068863;28;20880;-53
2022/12/29 12:17:57;;;;;;;4.50;0.60;;;12.80;1.00;;;;;;5065659;28;20398;-55
2022/12/29 12:20:35;;;;;;;4.50;0.60;;;12.80;1.00;;;;;;5068227;28;20495;-51
2022/12/29 12:23:25;;;;;;;4.60;0.70;;;13.00;1.00;;;;;;5066655;28;20412;-58
2022/12/29 12:26:04;;;;;;;4.57;0.70;;;13.00;1.00;;;;;;5070019;28;20459;-51
2022/12/29 12:28:44;;;;;;;4.72;0.50;;;13.00;1.00;;;;;;5069314;28;20404;-51
2022/12/29 12:31:38;;;;;;;6.40;0.68;;;13.10;1.00;;;;;;5070229;28;20436;-52
2022/12/29 12:34:10;;;;;;;4.78;0.70;;;13.20;1.00;;;;;;5030172;28;20749;-56
2022/12/29 12:37:00;;;;;;;4.70;0.60;;;13.20;1.00;;;;;;5062931;28;20951;-51
2022/12/29 12:39:36;;;;;;;4.68;0.60;;;13.20;1.00;;;;;;5059626;28;20892;-52
2022/12/29 12:42:39;;;;;;;4.40;0.73;;;13.40;1.00;;;;;;5071557;28;20411;-57
2022/12/29 12:45:38;;;;;;;4.38;0.60;;;13.60;1.00;;;;;;5067626;28;20443;-56
2022/12/29 12:48:37;;;;;;;6.35;0.70;;;13.60;1.00;;;;;;5062920;28;20431;-56
2022/12/29 12:51:24;;;;;;;4.50;0.60;;;13.60;1.00;;;;;;5062410;28;20816;-56
2022/12/29 12:54:10;;;;;;;4.72;0.80;;;13.70;1.00;;;;;;5068118;28;20497;-52
2022/12/29 12:56:47;;;;;;;5.50;0.82;;;13.90;1.00;;;;;;5072065;28;20395;-52
2022/12/29 12:59:30;;;;;;;4.93;0.80;;;14.10;1.00;;;;;;5068646;28;20438;-52
2022/12/29 13:02:17;;;;;;;5.57;0.90;;;14.20;1.00;;;;;;5071429;28;20753;-51
2022/12/29 13:04:42;;;;;;;6.22;1.00;;;14.20;1.00;;;;;;5078959;28;20433;-52
2022/12/29 13:07:31;;;;;;;5.30;1.30;;;14.30;1.00;;;;;;5091085;28;20838;-51
2022/12/29 13:10:09;;;;;;;5.50;1.20;;;14.30;1.00;;;;;;5073335;28;20436;-53
2022/12/29 13:12:58;;;;;;;5.90;1.13;;;14.30;1.00;;;;;;5071299;28;20395;-51
2022/12/29 13:15:51;;;;;;;5.95;1.33;;;14.30;1.00;;;;;;5070851;28;20460;-50
2022/12/29 13:18:29;;;;;;;6.05;1.30;;;14.40;1.00;;;;;;5070508;28;20419;-53
2022/12/29 13:21:06;;;;;;;5.32;1.33;;;14.20;1.00;;;;;;5062291;28;20529;-54
2022/12/29 13:24:06;;;;;;;6.68;1.60;;;13.70;1.00;;;;;;5064256;28;20527;-52
2022/12/29 13:26:42;;;;;;;6.88;1.48;;;13.50;1.00;;;;;;4985683;28;20415;-52
2022/12/29 13:29:20;;;;;;;6.32;1.38;;;13.40;1.00;;;;;;5056930;28;20824;-52
2022/12/29 13:32:16;;;;;;;5.32;1.20;;;13.40;1.00;;;;;;5070103;28;20404;-52
2022/12/29 13:35:02;;;;;;;8.82;1.42;;;13.40;1.00;;;;;;5065814;28;20430;-52
2022/12/29 13:37:31;;;;;;;7.67;1.70;;;13.50;1.00;;;;;;5052582;28;20477;-52
2022/12/29 13:40:02;;;;;;;6.63;1.50;;;13.40;1.00;;;;;;5062348;28;20433;-52
2022/12/29 13:42:28;;;;;;;6.15;1.40;;;13.40;1.00;;;;;;5071010;28;20448;-52
2022/12/29 13:45:06;;;;;;;7.50;1.60;;;13.30;1.00;;;;;;5063709;28;20405;-51
2022/12/29 13:47:54;;;;;;;5.93;1.50;;;13.20;1.00;;;;;;5061053;28;20508;-52
2022/12/29 13:50:24;;;;;;;6.60;1.50;;;13.10;1.00;;;;;;5055368;28;20446;-52
2022/12/29 13:53:11;;;;;;;7.70;1.60;;;13.20;1.00;;;;;;5056972;28;20940;-52